Time;durP1;ratioP1;P1;durP2;ratioP2;P2;SDS_P1;SDS_P2;PMS_P1;PMS_P2;Temp;Humidity;BMP_temperature;BMP_pressure;BME280_temperature;BME280_humidity;BME280_pressure;Samples;Min_cycle;Max_cycle;Signal;HPM_P1;HPM_P2
2022/12/30 00:00:06;;;;;;;8.85;2.88;;;;;;;9.05;59.31;100449.78;688209;28;1178;-84
2022/12/30 00:00:30;;;;;;;10.27;3.00;;;;;;;9.15;59.36;100463.09;688197;28;1216;-84
2022/12/30 00:00:51;;;;;;;12.55;3.10;;;;;;;9.13;59.24;100456.91;690759;28;1244;-84
2022/12/30 00:01:14;;;;;;;13.95;3.30;;;;;;;9.19;58.96;100457.09;691023;28;1080;-84
2022/12/30 00:01:35;;;;;;;10.95;3.45;;;;;;;9.17;59.35;100453.59;688225;28;970;-84
2022/12/30 00:01:56;;;;;;;9.43;3.80;;;;;;;9.15;59.23;100440.50;682869;29;1159;-83
2022/12/30 00:02:16;;;;;;;7.63;3.47;;;;;;;9.17;59.01;100454.44;688038;28;1293;-83
2022/12/30 00:02:37;;;;;;;8.35;3.47;;;;;;;9.22;59.18;100456.31;688158;28;990;-84
2022/12/30 00:02:57;;;;;;;9.43;3.43;;;;;;;9.18;58.89;100445.81;688243;28;872;-84
2022/12/30 00:03:18;;;;;;;12.10;3.60;;;;;;;9.28;58.54;100459.97;685468;28;1241;-83
2022/12/30 00:03:39;;;;;;;11.30;3.60;;;;;;;9.28;58.62;100459.97;690625;28;1232;-84
2022/12/30 00:04:00;;;;;;;10.77;3.20;;;;;;;9.24;58.82;100455.53;685580;28;1319;-84
2022/12/30 00:04:20;;;;;;;8.97;3.37;;;;;;;9.23;59.09;100458.97;685496;28;1046;-84
2022/12/30 00:04:41;;;;;;;8.80;3.07;;;;;;;9.29;58.92;100453.91;685452;28;1026;-83
2022/12/30 00:05:02;;;;;;;8.60;3.30;;;;;;;9.25;58.80;100448.59;685429;28;1153;-82
2022/12/30 00:05:23;;;;;;;8.27;3.10;;;;;;;9.24;58.73;100444.22;688097;28;1239;-84
2022/12/30 00:05:43;;;;;;;10.65;3.30;;;;;;;9.26;58.77;100447.75;690813;28;1330;-84
2022/12/30 00:06:06;;;;;;;12.40;3.67;;;;;;;9.36;58.75;100456.69;690730;28;1360;-83
2022/12/30 00:06:27;;;;;;;12.35;3.90;;;;;;;9.31;58.57;100457.47;690851;28;880;-84
2022/12/30 00:06:47;;;;;;;10.02;3.50;;;;;;;9.30;58.88;100449.59;685138;28;1278;-84
2022/12/30 00:07:08;;;;;;;7.10;2.63;;;;;;;9.31;58.60;100462.69;685490;28;1071;-84
2022/12/30 00:07:28;;;;;;;8.85;3.00;;;;;;;9.35;58.56;100460.16;682653;28;1338;-84
2022/12/30 00:07:49;;;;;;;10.50;3.35;;;;;;;9.27;58.36;100447.78;685431;28;1169;-84
2022/12/30 00:08:45;;;;;;;10.60;3.40;;;;;;;9.29;58.53;100451.31;688219;28;1139;-84
2022/12/30 00:08:54;;;;;;;8.80;3.17;;;;;;;9.28;58.59;100446.94;685252;28;1377;-84
2022/12/30 00:09:15;;;;;;;9.32;3.17;;;;;;;9.28;58.82;100451.28;682665;29;1249;-85
2022/12/30 00:09:35;;;;;;;10.17;3.00;;;;;;;9.34;58.71;100458.38;682756;29;1442;-84
2022/12/30 00:09:56;;;;;;;10.50;3.17;;;;;;;9.43;58.47;100472.56;688154;28;1305;-84
2022/12/30 00:10:16;;;;;;;9.98;3.20;;;;;;;9.42;58.50;100460.38;685443;28;1069;-84
2022/12/30 00:10:37;;;;;;;10.23;3.30;;;;;;;9.43;58.55;100451.72;682852;29;1068;-84
2022/12/30 00:10:58;;;;;;;9.93;3.10;;;;;;;9.41;58.16;100462.94;682756;28;1360;-84
2022/12/30 00:11:28;;;;;;;9.20;3.10;;;;;;;9.36;58.18;100451.50;685396;28;1001;-83
2022/12/30 00:11:48;;;;;;;7.25;3.13;;;;;;;9.45;58.22;100465.66;685061;28;1061;-83
2022/12/30 00:33:08;;;;;;;10.93;3.60;;;;;;;9.55;57.49;100479.81;688057;28;1225;-84
2022/12/30 00:33:33;;;;;;;13.05;3.72;;;;;;;9.54;57.53;100488.47;687363;28;1373;-84
2022/12/30 00:34:04;;;;;;;14.15;3.80;;;;;;;9.46;57.74;100492.56;685449;28;1972;-84
2022/12/30 00:34:28;;;;;;;11.55;3.47;;;;;;;9.44;58.10;100486.44;682804;29;1007;-83
2022/12/30 00:34:48;;;;;;;12.63;3.20;;;;;;;9.34;58.02;100471.41;682852;28;977;-83
2022/12/30 00:35:11;;;;;;;12.13;3.10;;;;;;;9.38;57.91;100481.94;688184;28;1019;-84
2022/12/30 00:35:32;;;;;;;12.05;3.00;;;;;;;9.36;58.17;100482.75;685497;28;1121;-83
2022/12/30 00:35:53;;;;;;;9.40;3.10;;;;;;;9.28;58.32;100461.72;685401;28;1096;-83
2022/12/30 00:36:23;;;;;;;11.13;3.13;;;;;;;9.24;58.38;100471.16;682993;28;749;-84
2022/12/30 00:36:46;;;;;;;12.00;3.03;;;;;;;9.37;57.90;100498.41;684931;28;1211;-83
2022/12/30 00:37:07;;;;;;;10.25;3.10;;;;;;;9.34;58.29;100474.00;682790;28;1217;-83
2022/12/30 00:37:27;;;;;;;9.80;2.92;;;;;;;9.27;58.04;100468.63;682837;28;2045;-84
2022/12/30 00:37:48;;;;;;;8.48;2.90;;;;;;;9.31;58.32;100499.13;685346;28;1271;-83
2022/12/30 00:38:09;;;;;;;10.13;2.80;;;;;;;9.12;57.98;100476.88;688156;28;1273;-83
2022/12/30 00:38:29;;;;;;;10.17;2.80;;;;;;;9.17;58.21;100475.28;685358;28;1219;-84
2022/12/30 00:38:50;;;;;;;11.20;2.80;;;;;;;9.16;58.21;100477.84;688143;28;1218;-84
2022/12/30 00:39:10;;;;;;;9.97;3.10;;;;;;;9.17;58.60;100483.09;688062;28;1232;-84
2022/12/30 00:39:31;;;;;;;11.82;3.42;;;;;;;9.18;58.21;100482.28;685462;28;1092;-83
2022/12/30 00:39:52;;;;;;;9.20;3.60;;;;;;;9.09;58.48;100471.56;682818;28;1100;-84
2022/12/30 00:40:13;;;;;;;10.60;3.50;;;;;;;9.09;58.47;100486.31;682689;29;1267;-83
2022/12/30 00:40:33;;;;;;;8.55;3.38;;;;;;;9.12;58.36;100489.00;685406;28;1161;-83
2022/12/30 00:43:09;;;;;;;10.00;3.05;;;;;;;9.12;58.75;100489.00;684794;28;1144;-83
2022/12/30 00:43:30;;;;;;;13.35;3.17;;;;;;;9.09;58.40;100484.59;684680;28;1084;-84
2022/12/30 00:43:51;;;;;;;15.50;3.53;;;;;;;9.12;58.51;100491.59;685347;28;1235;-84
2022/12/30 00:44:20;;;;;;;16.08;3.67;;;;;;;9.16;58.37;100488.28;685489;28;1135;-84
2022/12/30 00:44:41;;;;;;;12.35;3.25;;;;;;;9.16;58.40;100485.66;682736;29;976;-83
2022/12/30 00:45:01;;;;;;;11.75;3.50;;;;;;;9.12;58.31;100483.81;685422;28;1121;-84
2022/12/30 00:45:25;;;;;;;9.73;3.30;;;;;;;9.14;58.46;100482.13;688110;28;1264;-84
2022/12/30 00:45:46;;;;;;;9.57;2.92;;;;;;;9.14;58.48;100496.03;688099;28;1010;-84
2022/12/30 00:46:07;;;;;;;9.10;2.97;;;;;;;9.13;58.62;100491.66;685511;28;1057;-83
2022/12/30 00:46:28;;;;;;;10.45;3.08;;;;;;;9.21;58.16;100494.47;685467;28;1030;-83
2022/12/30 00:46:49;;;;;;;10.85;3.63;;;;;;;9.11;58.53;100485.53;687830;28;1385;-83
2022/12/30 00:47:11;;;;;;;12.55;3.70;;;;;;;9.14;58.41;100489.91;688135;28;1102;-83
2022/12/30 00:47:33;;;;;;;12.18;3.40;;;;;;;9.18;58.33;100491.78;684944;28;1258;-84
2022/12/30 00:47:54;;;;;;;9.90;3.20;;;;;;;9.14;58.53;100500.34;685534;28;808;-84
2022/12/30 00:56:12;;;;;;;11.20;3.60;;;;;;;8.97;58.91;100487.72;690791;28;1099;-83
2022/12/30 00:56:33;;;;;;;11.77;3.80;;;;;;;9.05;58.83;100495.75;688216;28;874;-84
2022/12/30 00:56:53;;;;;;;9.38;3.38;;;;;;;9.02;58.72;100477.44;685231;28;1302;-84
2022/12/30 00:57:14;;;;;;;7.73;3.00;;;;;;;9.13;58.50;100498.56;685214;28;1911;-83
2022/12/30 00:57:34;;;;;;;7.72;2.97;;;;;;;9.05;58.84;100485.34;685503;28;1072;-83
2022/12/30 00:57:55;;;;;;;8.43;3.17;;;;;;;9.18;58.77;100504.81;688204;28;935;-83
2022/12/30 00:58:15;;;;;;;7.83;2.93;;;;;;;9.14;58.43;100484.72;688046;28;1124;-83
2022/12/30 00:58:36;;;;;;;7.70;2.90;;;;;;;9.16;58.47;100483.94;688383;28;982;-83
2022/12/30 00:58:57;;;;;;;8.30;2.78;;;;;;;9.12;58.29;100487.28;690850;28;1293;-84
2022/12/30 00:59:17;;;;;;;9.00;3.00;;;;;;;9.24;58.13;100502.41;688079;28;1194;-84
2022/12/30 00:59:38;;;;;;;10.65;3.17;;;;;;;9.13;58.06;100491.66;690815;28;1079;-83
2022/12/30 00:59:58;;;;;;;13.50;3.30;;;;;;;9.17;58.36;100484.81;685502;28;1213;-84
2022/12/30 01:00:19;;;;;;;14.30;3.17;;;;;;;9.17;58.33;100485.69;685277;28;1418;-83
2022/12/30 01:00:40;;;;;;;13.73;3.03;;;;;;;9.21;58.30;100493.63;682680;29;1118;-84
2022/12/30 01:01:00;;;;;;;10.45;2.92;;;;;;;9.26;58.35;100505.03;688172;28;1133;-84
2022/12/30 01:01:21;;;;;;;10.03;2.97;;;;;;;9.26;58.30;100502.41;688002;28;1254;-84
2022/12/30 01:01:41;;;;;;;9.73;2.90;;;;;;;9.22;57.95;100503.19;688214;28;1108;-84
2022/12/30 01:02:02;;;;;;;11.07;3.00;;;;;;;9.30;57.90;100501.69;682641;29;1319;-83
2022/12/30 01:02:23;;;;;;;8.93;2.87;;;;;;;9.15;58.07;100492.59;687666;28;1060;-84
2022/12/30 01:02:44;;;;;;;8.13;3.00;;;;;;;9.24;58.29;100497.19;690786;28;947;-84
2022/12/30 01:03:04;;;;;;;9.20;3.00;;;;;;;9.17;58.17;100495.25;685483;28;1212;-84
2022/12/30 01:03:25;;;;;;;11.65;3.20;;;;;;;9.14;58.33;100496.03;688150;28;1066;-83
2022/12/30 01:03:46;;;;;;;13.20;3.30;;;;;;;9.18;58.41;100507.41;682744;28;1251;-83
2022/12/30 01:04:07;;;;;;;13.00;3.33;;;;;;;9.21;58.16;100499.69;682848;28;1068;-84
2022/12/30 01:04:28;;;;;;;13.68;3.58;;;;;;;9.21;58.28;100493.63;682752;29;1249;-84
2022/12/30 01:04:49;;;;;;;12.10;3.30;;;;;;;9.16;58.23;100494.34;685383;28;1245;-84
2022/12/30 01:05:09;;;;;;;11.05;3.13;;;;;;;9.12;58.15;100489.91;693532;28;1326;-84
2022/12/30 01:05:30;;;;;;;10.47;2.90;;;;;;;9.15;58.29;100483.91;687981;28;1097;-84
2022/12/30 01:05:51;;;;;;;11.00;3.05;;;;;;;9.12;58.20;100491.59;688086;28;1147;-84
2022/12/30 01:06:11;;;;;;;11.95;3.72;;;;;;;9.11;58.28;100495.06;688073;28;1044;-83
2022/12/30 01:06:32;;;;;;;12.60;4.00;;;;;;;9.20;57.94;100500.53;683259;29;1151;-84
2022/12/30 01:06:52;;;;;;;11.82;4.10;;;;;;;9.09;58.40;100486.31;682935;29;1100;-83
2022/12/30 01:07:13;;;;;;;14.43;3.90;;;;;;;9.12;58.45;100502.03;685933;28;1213;-84
2022/12/30 01:07:34;;;;;;;11.60;3.47;;;;;;;9.03;58.26;100485.28;688619;28;1064;-84
2022/12/30 01:07:54;;;;;;;10.05;3.10;;;;;;;9.04;58.27;100494.00;690923;28;1280;-84
2022/12/30 01:08:15;;;;;;;5.85;2.80;;;;;;;9.10;58.48;100501.09;691250;28;1235;-84
2022/12/30 01:08:36;;;;;;;6.70;2.90;;;;;;;9.11;58.40;100501.16;688588;28;1273;-84
2022/12/30 01:08:56;;;;;;;6.07;3.03;;;;;;;9.15;58.80;100507.34;688670;28;1337;-84
2022/12/30 01:09:17;;;;;;;8.07;3.08;;;;;;;9.09;58.29;100504.53;688642;28;1155;-83
2022/12/30 01:09:53;;;;;;;9.60;3.40;;;;;;;9.01;58.73;100488.69;690976;28;1357;-84
2022/12/30 01:10:13;;;;;;;10.45;3.28;;;;;;;9.06;58.48;100502.72;688574;28;1017;-84
2022/12/30 01:10:34;;;;;;;8.02;3.00;;;;;;;9.01;58.64;100489.59;685873;28;1408;-83
2022/12/30 01:10:54;;;;;;;9.13;3.10;;;;;;;8.95;58.43;100488.53;685973;28;1336;-84
2022/12/30 01:11:15;;;;;;;9.98;3.05;;;;;;;8.97;58.52;100492.91;688533;28;1213;-83
2022/12/30 01:11:36;;;;;;;11.90;3.30;;;;;;;9.04;58.64;100504.41;683222;28;1127;-83
2022/12/30 01:12:08;;;;;;;13.25;3.50;;;;;;;8.96;58.74;100491.16;683259;28;1184;-84
2022/12/30 01:12:29;;;;;;;11.00;3.33;;;;;;;9.02;58.50;100506.97;685851;28;1021;-84
2022/12/30 01:12:50;;;;;;;9.10;3.17;;;;;;;8.94;58.66;100503.25;685894;28;1057;-84
2022/12/30 01:13:10;;;;;;;10.77;3.33;;;;;;;8.96;58.79;100506.75;686030;28;1172;-84
2022/12/30 01:13:31;;;;;;;12.65;3.45;;;;;;;8.93;58.79;100504.09;688448;28;1216;-84
2022/12/30 01:13:52;;;;;;;11.80;3.15;;;;;;;8.89;58.82;100504.81;688526;28;1425;-83
2022/12/30 01:14:14;;;;;;;10.30;3.40;;;;;;;8.88;58.79;100492.63;685848;28;1302;-84
2022/12/30 01:14:42;;;;;;;11.67;3.70;;;;;;;8.91;58.94;100518.78;685867;28;1249;-84
2022/12/30 01:15:03;;;;;;;12.18;4.05;;;;;;;8.89;58.66;100507.41;688639;28;1083;-83
2022/12/30 01:15:24;;;;;;;13.43;3.92;;;;;;;8.86;58.78;100510.78;688591;28;1264;-84
2022/12/30 01:15:45;;;;;;;13.98;4.30;;;;;;;8.93;58.91;100501.47;685777;28;1372;-83
2022/12/30 01:16:10;;;;;;;12.52;4.00;;;;;;;8.88;58.74;100513.47;685964;28;1294;-83
2022/12/30 01:16:31;;;;;;;10.07;3.40;;;;;;;8.85;59.27;100500.38;685875;28;1094;-83
2022/12/30 01:16:52;;;;;;;10.23;2.88;;;;;;;8.84;59.00;100509.00;685713;28;1243;-84
2022/12/30 01:17:20;;;;;;;10.13;2.90;;;;;;;8.87;58.85;100511.69;683196;28;1980;-84
2022/12/30 01:17:40;;;;;;;8.30;2.85;;;;;;;8.94;58.94;100518.84;686092;28;1030;-83
2022/12/30 01:18:01;;;;;;;9.95;2.90;;;;;;;8.84;58.91;100498.59;683238;28;1104;-84
2022/12/30 01:18:22;;;;;;;10.53;2.80;;;;;;;8.81;58.83;100496.78;683173;29;1118;-84
2022/12/30 01:18:43;;;;;;;13.55;3.45;;;;;;;8.94;58.89;100515.34;683086;28;1363;-83
2022/12/30 01:19:04;;;;;;;11.50;3.40;;;;;;;8.90;58.79;100511.78;685877;28;1291;-83
2022/12/30 01:19:24;;;;;;;12.83;3.53;;;;;;;8.85;58.81;100508.16;685881;28;1160;-84
2022/12/30 01:19:45;;;;;;;11.20;3.08;;;;;;;8.89;58.91;100516.13;688524;28;1292;-83
2022/12/30 01:20:07;;;;;;;9.80;3.40;;;;;;;8.83;59.10;100507.25;688519;28;1174;-84
2022/12/30 01:20:27;;;;;;;11.45;4.03;;;;;;;8.89;59.28;100499.59;691148;28;1105;-84
2022/12/30 01:20:48;;;;;;;13.87;4.20;;;;;;;8.88;58.68;100511.75;691275;28;1098;-84
2022/12/30 01:21:09;;;;;;;14.52;3.88;;;;;;;8.83;58.86;100509.84;691254;28;1296;-84
2022/12/30 01:21:30;;;;;;;12.05;3.65;;;;;;;8.88;59.21;100518.66;688615;28;1131;-83
2022/12/30 01:21:50;;;;;;;12.02;3.95;;;;;;;8.82;58.99;100495.03;685907;28;1143;-83
2022/12/30 01:22:11;;;;;;;12.18;3.78;;;;;;;8.80;58.94;100495.03;685889;28;1294;-83
2022/12/30 01:22:32;;;;;;;9.37;3.20;;;;;;;8.83;58.85;100502.91;685915;28;1139;-84
2022/12/30 01:22:52;;;;;;;9.50;2.75;;;;;;;8.83;59.00;100499.44;688530;28;1090;-84
2022/12/30 01:23:13;;;;;;;10.95;3.10;;;;;;;8.86;59.13;100515.13;685883;28;1109;-83
2022/12/30 01:23:34;;;;;;;13.97;3.33;;;;;;;8.89;58.72;100517.81;685886;28;1185;-84
2022/12/30 01:23:55;;;;;;;13.02;3.45;;;;;;;8.86;58.77;100517.75;683328;29;840;-83
2022/12/30 01:24:16;;;;;;;11.63;2.97;;;;;;;8.83;59.01;100499.44;683191;29;1112;-83
2022/12/30 01:24:59;;;;;;;8.00;2.70;;;;;;;9.03;58.51;100534.75;685963;28;1093;-83
2022/12/30 01:25:20;;;;;;;15.18;3.30;;;;;;;8.90;58.73;100501.38;688497;28;1091;-83
2022/12/30 01:25:41;;;;;;;15.65;3.10;;;;;;;9.01;58.61;100513.00;688616;28;980;-83
2022/12/30 01:26:06;;;;;;;14.45;3.10;;;;;;;9.14;58.73;100523.75;688575;28;1237;-84
2022/12/30 01:26:26;;;;;;;9.32;3.08;;;;;;;9.07;58.65;100516.63;685860;28;1243;-83
2022/12/30 01:26:47;;;;;;;10.18;3.10;;;;;;;8.98;58.41;100507.69;685638;28;1108;-84
2022/12/30 01:27:08;;;;;;;10.10;3.10;;;;;;;9.05;58.38;100516.59;685892;28;1166;-83
2022/12/30 01:27:30;;;;;;;9.25;2.90;;;;;;;9.07;58.50;100512.31;685877;28;1211;-84
2022/12/30 01:27:51;;;;;;;8.05;3.22;;;;;;;9.08;58.15;100515.81;685774;28;1210;-84
2022/12/30 01:28:12;;;;;;;10.90;3.40;;;;;;;9.00;58.21;100516.44;685858;28;1205;-83
2022/12/30 01:28:34;;;;;;;10.10;3.33;;;;;;;9.07;58.39;100519.25;685214;28;1052;-83
2022/12/30 01:28:55;;;;;;;9.48;2.90;;;;;;;9.02;58.09;100512.16;688522;28;1188;-83
2022/12/30 01:29:25;;;;;;;8.23;2.95;;;;;;;9.12;58.19;100528.06;683167;29;1198;-84
2022/12/30 01:29:46;;;;;;;8.70;3.00;;;;;;;9.05;58.53;100516.59;685810;28;1112;-83
2022/12/30 01:30:08;;;;;;;8.32;2.83;;;;;;;9.07;58.36;100519.25;688524;28;1279;-83
2022/12/30 01:30:28;;;;;;;9.85;2.80;;;;;;;8.96;58.25;100514.56;683236;29;953;-83
2022/12/30 01:30:49;;;;;;;11.20;3.10;;;;;;;8.98;58.44;100514.63;688509;28;985;-83
2022/12/30 01:31:11;;;;;;;14.83;3.40;;;;;;;8.95;58.60;100520.63;688659;28;1056;-83
2022/12/30 01:31:31;;;;;;;15.35;3.45;;;;;;;8.98;58.16;100514.63;688534;28;1171;-84
2022/12/30 01:31:58;;;;;;;17.15;3.60;;;;;;;9.03;58.42;100523.47;685730;28;1331;-83
2022/12/30 01:32:21;;;;;;;12.77;3.33;;;;;;;8.98;58.08;100518.09;685836;28;1244;-84
2022/12/30 01:32:41;;;;;;;11.05;2.90;;;;;;;9.10;58.39;100534.94;685828;28;1073;-84
2022/12/30 01:33:02;;;;;;;8.77;2.97;;;;;;;9.05;58.40;100524.41;693993;28;1316;-84
2022/12/30 01:33:23;;;;;;;9.30;3.10;;;;;;;8.99;58.43;100514.69;688499;28;1215;-83
2022/12/30 01:33:43;;;;;;;8.53;3.10;;;;;;;9.02;58.12;100517.38;691258;28;1203;-83
2022/12/30 01:34:04;;;;;;;7.40;2.60;;;;;;;9.05;58.34;100520.06;691221;28;1239;-84
2022/12/30 01:34:25;;;;;;;6.85;2.50;;;;;;;9.12;58.03;100533.25;685851;28;1117;-83
2022/12/30 01:34:46;;;;;;;7.45;2.65;;;;;;;9.07;58.23;100521.84;682993;28;1229;-84
2022/12/30 01:35:07;;;;;;;9.45;2.90;;;;;;;9.02;58.04;100522.56;685847;28;1118;-84
2022/12/30 01:35:28;;;;;;;10.60;2.93;;;;;;;9.02;58.13;100517.38;688516;28;1359;-83
2022/12/30 01:35:49;;;;;;;11.48;3.00;;;;;;;9.05;58.21;100529.59;688482;28;1098;-83
2022/12/30 01:36:09;;;;;;;12.40;2.95;;;;;;;8.97;58.36;100529.34;685875;28;1220;-84
2022/12/30 01:36:30;;;;;;;11.93;2.83;;;;;;;8.99;58.53;100514.69;688446;28;1197;-84
2022/12/30 01:36:51;;;;;;;10.52;2.95;;;;;;;8.96;58.29;100514.56;688174;28;1232;-84
2022/12/30 01:37:12;;;;;;;10.27;2.92;;;;;;;8.96;58.64;100538.00;685756;28;1914;-84
2022/12/30 01:37:33;;;;;;;9.70;2.95;;;;;;;8.99;58.48;100527.69;685925;28;993;-84
2022/12/30 01:37:53;;;;;;;9.27;2.87;;;;;;;8.93;58.49;100526.59;691217;28;1218;-84
2022/12/30 01:38:15;;;;;;;10.32;2.90;;;;;;;8.97;58.32;100528.47;691310;28;983;-83
2022/12/30 01:38:36;;;;;;;11.57;3.17;;;;;;;8.94;58.28;100529.28;688585;28;1146;-84
2022/12/30 01:38:56;;;;;;;12.00;2.90;;;;;;;8.98;58.30;100531.13;685862;28;1166;-84
2022/12/30 01:39:17;;;;;;;11.77;3.00;;;;;;;8.96;58.46;100532.78;683181;29;1038;-83
2022/12/30 01:39:38;;;;;;;9.65;3.17;;;;;;;8.86;58.23;100520.34;683270;29;1060;-83
2022/12/30 01:39:58;;;;;;;10.20;3.63;;;;;;;8.95;58.47;100532.78;685902;28;1290;-84
2022/12/30 01:40:19;;;;;;;10.30;3.77;;;;;;;8.97;58.45;100528.47;688407;28;1062;-83
2022/12/30 01:40:40;;;;;;;10.13;3.42;;;;;;;8.88;58.41;100521.25;691225;28;1063;-83
2022/12/30 01:41:01;;;;;;;8.88;2.92;;;;;;;8.83;58.56;100526.31;688591;28;1487;-84
2022/12/30 01:41:22;;;;;;;11.57;3.30;;;;;;;8.94;58.30;100524.06;685774;28;1295;-83
2022/12/30 01:41:43;;;;;;;12.82;3.30;;;;;;;8.94;58.47;100537.06;688602;28;1099;-84
2022/12/30 01:42:16;;;;;;;14.30;3.35;;;;;;;8.98;58.31;100540.66;685888;28;1152;-83
2022/12/30 01:42:39;;;;;;;11.70;2.80;;;;;;;8.99;58.24;100539.81;685862;28;1057;-83
2022/12/30 01:43:00;;;;;;;12.70;2.83;;;;;;;8.99;58.48;100539.81;683223;28;1384;-83
2022/12/30 01:43:38;;;;;;;12.40;2.80;;;;;;;8.90;58.28;100522.19;683009;28;1366;-84
2022/12/30 01:43:58;;;;;;;13.27;3.00;;;;;;;8.92;58.32;100530.94;687682;28;1284;-83
2022/12/30 01:44:56;;;;;;;13.30;3.00;;;;;;;8.94;58.47;100541.38;683176;28;1101;-83
2022/12/30 01:45:41;;;;;;;13.18;4.10;;;;;;;8.90;58.30;100548.22;685721;28;1177;-83
2022/12/30 01:46:05;;;;;;;13.02;3.15;;;;;;;8.88;58.44;100544.69;688629;28;1228;-84
2022/12/30 01:46:30;;;;;;;10.98;2.90;;;;;;;8.80;58.90;100531.44;688403;28;1141;-84
2022/12/30 01:46:51;;;;;;;10.20;2.80;;;;;;;8.85;58.72;100542.88;685560;28;1246;-83
2022/12/30 01:47:34;;;;;;;11.23;2.73;;;;;;;8.91;58.35;100537.00;683196;28;1238;-83
2022/12/30 01:47:55;;;;;;;9.90;2.70;;;;;;;8.98;58.19;100556.28;685501;28;1247;-84
2022/12/30 01:48:29;;;;;;;11.13;2.67;;;;;;;8.91;58.44;100545.66;688459;28;1099;-83
2022/12/30 01:48:52;;;;;;;9.30;2.53;;;;;;;8.88;58.32;100539.47;691128;28;1873;-84
2022/12/30 01:49:13;;;;;;;6.07;2.53;;;;;;;8.82;58.38;100536.69;688369;28;1119;-84
2022/12/30 01:49:39;;;;;;;7.50;2.60;;;;;;;8.85;58.42;100544.59;688617;28;772;-84
2022/12/30 01:50:13;;;;;;;7.63;2.60;;;;;;;8.90;58.78;100546.50;683268;28;1347;-83
2022/12/30 01:50:48;;;;;;;12.52;3.00;;;;;;;8.82;58.56;100531.47;685860;28;921;-83
2022/12/30 01:51:17;;;;;;;12.05;3.33;;;;;;;8.92;58.41;100549.16;687750;28;1028;-83
2022/12/30 01:51:38;;;;;;;8.82;2.65;;;;;;;8.80;58.29;100539.25;685809;28;1159;-83
2022/12/30 01:51:58;;;;;;;7.50;2.85;;;;;;;8.87;58.49;100540.31;685871;28;1477;-84
2022/12/30 01:52:23;;;;;;;9.07;2.80;;;;;;;8.77;58.37;100527.03;688369;28;1139;-83
2022/12/30 01:52:53;;;;;;;11.38;3.08;;;;;;;8.74;58.38;100532.13;685886;28;969;-84
2022/12/30 01:53:20;;;;;;;12.50;3.20;;;;;;;8.76;58.26;100538.28;691155;28;1012;-83
2022/12/30 01:53:44;;;;;;;10.55;3.25;;;;;;;8.72;58.28;100545.94;691121;28;1106;-83
2022/12/30 01:54:05;;;;;;;11.95;3.58;;;;;;;8.70;58.68;100540.69;685891;28;1076;-83
2022/12/30 01:54:26;;;;;;;10.23;3.30;;;;;;;8.66;58.53;100537.94;683166;28;1083;-83
2022/12/30 01:54:48;;;;;;;11.67;3.30;;;;;;;8.62;58.76;100534.34;683073;28;1282;-83
2022/12/30 01:55:15;;;;;;;9.85;2.80;;;;;;;8.67;59.01;100537.97;685832;28;1264;-83
2022/12/30 01:55:57;;;;;;;9.65;2.50;;;;;;;8.72;59.11;100553.75;688398;28;1251;-84
2022/12/30 01:56:34;;;;;;;10.57;2.58;;;;;;;8.56;58.90;100534.09;688299;28;1106;-83
2022/12/30 01:56:55;;;;;;;7.72;2.63;;;;;;;8.62;59.20;100545.63;685719;28;740;-84
2022/12/30 01:57:16;;;;;;;8.53;2.77;;;;;;;8.62;59.07;100542.16;685651;28;1974;-83
2022/12/30 01:57:41;;;;;;;12.85;2.75;;;;;;;8.67;58.99;100529.28;691252;28;933;-84
2022/12/30 01:58:07;;;;;;;17.70;2.70;;;;;;;8.69;58.90;100543.22;691148;28;1415;-84
2022/12/30 01:58:33;;;;;;;11.68;2.53;;;;;;;8.66;58.77;100543.13;685781;28;1401;-84
2022/12/30 01:59:00;;;;;;;11.23;2.90;;;;;;;8.66;58.89;100557.00;683254;28;768;-83
2022/12/30 01:59:23;;;;;;;13.82;3.25;;;;;;;8.65;59.01;100537.03;685790;28;1115;-83
2022/12/30 01:59:44;;;;;;;10.98;3.33;;;;;;;8.61;58.99;100542.94;685675;28;1385;-83
2022/12/30 02:00:07;;;;;;;11.20;3.95;;;;;;;8.60;58.92;100536.84;691186;28;1095;-83
2022/12/30 02:00:33;;;;;;;9.55;3.90;;;;;;;8.67;59.28;100543.19;688491;28;1152;-83
2022/12/30 02:00:53;;;;;;;8.23;3.45;;;;;;;8.64;58.71;100543.06;685722;28;1298;-82
2022/12/30 02:01:14;;;;;;;7.23;2.70;;;;;;;8.61;58.94;100535.16;685670;28;1161;-83
2022/12/30 02:01:36;;;;;;;7.45;2.60;;;;;;;8.72;58.84;100549.41;685712;28;1283;-83
2022/12/30 02:01:57;;;;;;;7.85;2.60;;;;;;;8.69;58.74;100549.31;685817;28;1271;-83
2022/12/30 02:02:19;;;;;;;7.18;2.85;;;;;;;8.63;58.99;100550.00;688430;28;1115;-84
2022/12/30 02:02:40;;;;;;;9.15;3.08;;;;;;;8.63;59.04;100546.50;685882;28;1029;-83
2022/12/30 02:03:00;;;;;;;9.40;3.05;;;;;;;8.61;59.22;100548.16;691293;28;1391;-83
2022/12/30 02:03:22;;;;;;;9.93;2.88;;;;;;;8.56;59.20;100532.41;688439;28;1110;-84
2022/12/30 02:03:48;;;;;;;8.43;2.78;;;;;;;8.59;59.16;100553.28;688338;28;1486;-84
2022/12/30 02:04:16;;;;;;;7.97;3.05;;;;;;;8.64;59.14;100540.47;683124;29;1110;-84
2022/12/30 02:04:37;;;;;;;11.27;3.35;;;;;;;8.56;59.21;100540.19;685878;28;1187;-84
2022/12/30 02:05:00;;;;;;;12.20;3.40;;;;;;;8.53;59.11;100531.41;685797;28;1126;-83
2022/12/30 02:05:23;;;;;;;10.70;3.00;;;;;;;8.60;59.10;100549.00;688385;28;1407;-83
2022/12/30 02:05:46;;;;;;;8.65;2.80;;;;;;;8.54;59.29;100539.25;683102;29;961;-83
2022/12/30 02:06:07;;;;;;;8.57;2.70;;;;;;;8.49;59.23;100531.28;688511;28;1561;-83
2022/12/30 02:06:54;;;;;;;10.13;2.92;;;;;;;8.53;59.34;100544.41;688457;28;1005;-84
2022/12/30 02:07:19;;;;;;;8.98;3.00;;;;;;;8.66;59.13;100550.94;683722;28;1146;-84
2022/12/30 02:07:48;;;;;;;10.80;3.20;;;;;;;8.59;59.30;100542.00;688430;28;1264;-84
2022/12/30 02:08:14;;;;;;;12.32;3.30;;;;;;;8.50;59.41;100540.84;691154;28;1299;-83
2022/12/30 02:08:35;;;;;;;10.18;2.90;;;;;;;8.59;58.90;100562.81;691204;28;1179;-83
2022/12/30 02:08:55;;;;;;;9.67;2.93;;;;;;;8.50;58.92;100548.66;685834;28;752;-84
2022/12/30 02:09:16;;;;;;;8.10;2.85;;;;;;;8.48;59.36;100545.13;685714;28;1197;-84
2022/12/30 02:09:37;;;;;;;5.97;2.45;;;;;;;8.49;59.41;100544.31;688403;28;1343;-83
2022/12/30 02:09:59;;;;;;;7.80;2.67;;;;;;;8.56;59.09;100560.13;688534;28;815;-83
2022/12/30 02:10:21;;;;;;;9.35;2.70;;;;;;;8.46;58.87;100552.00;683020;28;1268;-84
2022/12/30 02:10:45;;;;;;;10.30;2.92;;;;;;;8.43;59.16;100544.13;685699;28;1255;-84
2022/12/30 02:11:06;;;;;;;7.05;2.70;;;;;;;8.39;59.73;100552.63;685689;28;1300;-84
2022/12/30 02:11:28;;;;;;;7.00;2.65;;;;;;;8.47;59.51;100558.09;688421;28;1222;-84
2022/12/30 02:12:08;;;;;;;7.28;2.80;;;;;;;8.40;59.88;100564.81;688292;28;1138;-83
2022/12/30 02:12:28;;;;;;;7.75;2.78;;;;;;;8.27;59.86;100544.41;685710;28;1417;-84
2022/12/30 02:12:49;;;;;;;7.72;2.60;;;;;;;8.34;59.72;100554.19;685641;28;1190;-84
2022/12/30 02:13:12;;;;;;;7.72;3.00;;;;;;;8.31;59.83;100555.00;691210;28;1224;-83
2022/12/30 02:13:33;;;;;;;8.05;2.92;;;;;;;8.41;59.61;100553.56;688472;28;1330;-83
2022/12/30 02:13:54;;;;;;;9.18;3.15;;;;;;;8.31;59.91;100549.78;683165;28;1275;-83
2022/12/30 02:14:15;;;;;;;8.30;3.00;;;;;;;8.44;59.36;100558.00;685748;28;1228;-83
2022/12/30 02:14:39;;;;;;;8.45;3.15;;;;;;;8.40;59.91;100551.81;685845;28;1101;-84
2022/12/30 02:15:02;;;;;;;8.60;3.40;;;;;;;8.36;59.58;100556.00;688506;28;815;-83
2022/12/30 02:15:29;;;;;;;9.55;3.30;;;;;;;8.38;59.44;100553.47;693822;28;1051;-83
2022/12/30 02:16:01;;;;;;;9.68;3.47;;;;;;;8.44;59.49;100566.69;691031;28;1353;-84
2022/12/30 02:16:25;;;;;;;11.07;3.33;;;;;;;8.42;59.30;100570.94;693833;28;1032;-84
2022/12/30 02:17:01;;;;;;;13.38;3.33;;;;;;;8.38;59.79;100552.56;685554;28;1257;-84
2022/12/30 02:17:38;;;;;;;12.65;3.30;;;;;;;8.34;59.40;100551.59;688186;28;1906;-83
2022/12/30 02:18:07;;;;;;;10.35;3.33;;;;;;;8.39;59.46;100557.84;687977;28;926;-83
2022/12/30 02:18:45;;;;;;;7.88;3.00;;;;;;;8.46;59.51;100559.81;688182;28;1132;-84
2022/12/30 02:19:28;;;;;;;9.95;2.53;;;;;;;8.43;59.50;100558.81;686814;28;1068;-83
2022/12/30 02:20:13;;;;;;;11.32;2.70;;;;;;;8.44;59.67;100556.28;685697;28;1153;-83
2022/12/30 02:21:05;;;;;;;11.13;3.00;;;;;;;8.50;59.66;100558.19;685643;28;1265;-84
2022/12/30 02:21:28;;;;;;;8.77;2.55;;;;;;;8.46;59.43;100554.63;683103;28;976;-83
2022/12/30 02:22:20;;;;;;;8.73;2.47;;;;;;;8.48;59.67;100558.16;688448;28;1116;-84
2022/12/30 02:23:08;;;;;;;13.13;3.10;;;;;;;8.54;59.43;100561.78;688402;28;1177;-83
2022/12/30 02:23:47;;;;;;;13.65;3.10;;;;;;;8.44;59.45;100538.09;691264;28;1084;-84